createdAt,value
2018-09-12T00:01:57.396Z,7.17
2018-09-12T00:05:01.915Z,10.37
2018-09-12T00:08:06.219Z,7.10
2018-09-12T00:11:10.421Z,7.23
2018-09-12T00:14:14.771Z,6.13
2018-09-12T00:17:19.260Z,6.33
2018-09-12T00:20:23.604Z,6.93
2018-09-12T00:23:27.956Z,6.77
2018-09-12T00:26:31.815Z,7.57
2018-09-12T00:29:35.762Z,9.90
2018-09-12T00:32:39.646Z,6.30
2018-09-12T00:35:43.558Z,8.03
2018-09-12T00:38:47.785Z,8.20
2018-09-12T00:41:51.951Z,6.57
2018-09-12T00:44:56.093Z,6.73
2018-09-12T00:48:00.583Z,7.27
2018-09-12T00:51:04.973Z,7.10
2018-09-12T00:54:09.309Z,5.83
2018-09-12T00:57:13.473Z,6.60
2018-09-12T01:00:17.660Z,8.87
2018-09-12T01:03:21.945Z,7.07
2018-09-12T01:06:26.591Z,6.40
2018-09-12T01:09:30.890Z,6.13
2018-09-12T01:12:35.237Z,7.43
2018-09-12T01:15:39.682Z,9.47
2018-09-12T01:18:44.190Z,6.63
2018-09-12T01:21:48.568Z,7.33
2018-09-12T01:24:52.907Z,7.67
2018-09-12T01:27:58.367Z,6.40
2018-09-12T01:31:02.715Z,7.17
2018-09-12T01:34:06.933Z,7.20
2018-09-12T01:37:11.465Z,6.80
2018-09-12T01:40:15.987Z,7.00
2018-09-12T01:43:20.385Z,7.00
2018-09-12T01:46:24.738Z,6.87
2018-09-12T01:49:29.048Z,7.03
2018-09-12T01:52:33.481Z,6.93
2018-09-12T01:55:37.853Z,7.80
2018-09-12T01:58:42.041Z,7.37
2018-09-12T02:01:46.410Z,7.70
2018-09-12T02:04:51.051Z,7.27
2018-09-12T02:07:55.320Z,8.37
2018-09-12T02:10:59.816Z,6.60
2018-09-12T02:14:04.165Z,6.67
2018-09-12T02:17:08.345Z,7.07
2018-09-12T02:20:12.667Z,6.57
2018-09-12T02:23:16.980Z,8.23
2018-09-12T02:26:21.349Z,7.97
2018-09-12T02:29:25.641Z,7.03
2018-09-12T02:32:29.805Z,8.97
2018-09-12T02:35:34.054Z,8.30
2018-09-12T02:38:38.184Z,7.13
2018-09-12T02:41:42.554Z,7.37
2018-09-12T02:44:46.679Z,7.30
2018-09-12T02:47:51.596Z,6.33
2018-09-12T02:50:55.906Z,6.27
2018-09-12T02:54:00.278Z,7.20
2018-09-12T02:57:04.750Z,7.30
2018-09-12T03:00:09.481Z,7.20
2018-09-12T03:03:13.781Z,8.57
2018-09-12T03:06:18.148Z,7.47
2018-09-12T03:09:22.299Z,6.47
2018-09-12T03:12:26.510Z,6.90
2018-09-12T03:15:30.742Z,7.57
2018-09-12T03:18:34.903Z,7.40
2018-09-12T03:21:39.197Z,7.37
2018-09-12T03:24:43.618Z,8.17
2018-09-12T03:27:47.763Z,10.53
2018-09-12T03:30:52.013Z,7.30
2018-09-12T03:33:56.307Z,6.90
2018-09-12T03:37:00.599Z,7.83
2018-09-12T03:40:05.164Z,7.73
2018-09-12T03:43:09.546Z,10.40
2018-09-12T03:46:13.666Z,8.57
2018-09-12T03:49:18.023Z,7.27
2018-09-12T03:52:22.362Z,7.10
2018-09-12T03:55:26.676Z,8.70
2018-09-12T03:58:30.863Z,8.60
2018-09-12T04:01:35.348Z,7.43
2018-09-12T04:04:39.634Z,6.93
2018-09-12T04:07:43.797Z,8.40
2018-09-12T04:10:47.965Z,6.90
2018-09-12T04:13:52.470Z,6.73
2018-09-12T04:16:56.853Z,6.97
2018-09-12T04:20:01.631Z,9.60
2018-09-12T04:23:05.922Z,9.33
2018-09-12T04:26:10.152Z,7.80
2018-09-12T04:29:14.411Z,7.13
2018-09-12T04:32:18.602Z,7.13
2018-09-12T04:35:23.284Z,9.03
2018-09-12T04:38:27.476Z,7.83
2018-09-12T04:41:31.906Z,7.20
2018-09-12T04:44:36.252Z,10.07
2018-09-12T04:47:40.541Z,8.27
2018-09-12T04:50:44.771Z,7.90
2018-09-12T04:53:49.150Z,7.00
2018-09-12T04:56:53.530Z,7.30
2018-09-12T04:59:57.845Z,7.40
2018-09-12T05:03:02.178Z,8.73
2018-09-12T05:06:06.533Z,6.87
2018-09-12T05:09:11.670Z,8.30
2018-09-12T05:12:15.740Z,9.03
2018-09-12T05:15:19.940Z,12.30
2018-09-12T05:18:24.392Z,10.57
2018-09-12T05:21:28.760Z,8.50
2018-09-12T05:24:32.591Z,7.77
2018-09-12T05:27:36.852Z,9.93
2018-09-12T05:30:41.291Z,6.93
2018-09-12T05:33:45.671Z,7.30
2018-09-12T05:36:50.005Z,8.13
2018-09-12T05:39:54.369Z,8.67
2018-09-12T05:42:58.643Z,7.80
2018-09-12T05:46:02.901Z,8.43
2018-09-12T05:49:07.254Z,10.10
2018-09-12T05:52:11.544Z,7.10
2018-09-12T05:55:15.771Z,10.23
2018-09-12T05:58:20.049Z,8.23
2018-09-12T06:01:24.312Z,9.87
2018-09-12T06:04:28.636Z,9.83
2018-09-12T06:07:33.083Z,11.57
2018-09-12T06:10:37.464Z,9.23
2018-09-12T06:13:41.617Z,9.47
2018-09-12T06:16:45.765Z,8.63
2018-09-12T06:19:49.653Z,8.70
2018-09-12T06:22:54.012Z,10.07
2018-09-12T06:25:58.310Z,9.13
2018-09-12T06:29:02.809Z,8.67
2018-09-12T06:32:06.997Z,11.40
2018-09-12T06:35:11.362Z,8.90
2018-09-12T06:38:15.781Z,10.70
2018-09-12T06:41:20.098Z,7.73
2018-09-12T06:44:24.397Z,9.47
2018-09-12T06:47:28.697Z,7.70
2018-09-12T06:50:32.852Z,8.40
2018-09-12T06:53:36.917Z,10.70
2018-09-12T06:56:40.826Z,8.07
2018-09-12T06:59:45.028Z,10.20
2018-09-12T07:02:49.313Z,9.70
2018-09-12T07:05:53.640Z,9.33
2018-09-12T07:08:57.977Z,8.20
2018-09-12T07:12:02.450Z,7.87
2018-09-12T07:15:06.842Z,13.57
2018-09-12T07:18:10.988Z,8.10
2018-09-12T07:21:15.440Z,7.87
2018-09-12T07:24:19.572Z,8.53
2018-09-12T07:27:23.758Z,7.95
2018-09-12T07:30:28.106Z,8.40
2018-09-12T07:33:32.534Z,10.58
2018-09-12T07:36:36.848Z,8.03
2018-09-12T07:39:41.159Z,11.03
2018-09-12T07:42:45.515Z,7.75
2018-09-12T07:45:49.986Z,9.20
2018-09-12T07:48:54.407Z,6.67
2018-09-12T07:51:58.859Z,8.73
2018-09-12T07:55:03.411Z,9.18
2018-09-12T07:58:07.693Z,6.62
2018-09-12T08:01:11.973Z,8.03
2018-09-12T08:04:16.185Z,6.97
2018-09-12T08:07:20.355Z,7.58
2018-09-12T08:10:24.711Z,9.73
2018-09-12T08:13:29.162Z,7.87
2018-09-12T08:16:33.357Z,7.47
2018-09-12T08:19:37.611Z,6.28
2018-09-12T08:22:41.760Z,6.90
2018-09-12T08:25:45.681Z,7.22
2018-09-12T08:28:50.009Z,9.80
2018-09-12T08:31:53.878Z,6.35
2018-09-12T08:34:57.804Z,6.65
2018-09-12T08:38:01.685Z,6.28
2018-09-12T08:41:05.711Z,7.45
2018-09-12T08:44:09.995Z,10.65
2018-09-12T08:47:14.212Z,6.22
2018-09-12T08:50:18.719Z,5.10
2018-09-12T08:53:22.954Z,6.62
2018-09-12T08:56:27.283Z,5.40
2018-09-12T08:59:31.563Z,5.87
2018-09-12T09:02:35.889Z,6.25
2018-09-12T09:05:40.359Z,5.80
2018-09-12T09:08:44.691Z,5.87
2018-09-12T09:11:49.066Z,6.30
2018-09-12T09:14:53.361Z,6.30
2018-09-12T09:17:57.307Z,5.10
2018-09-12T09:21:01.185Z,5.40
2018-09-12T09:24:05.445Z,5.03
2018-09-12T09:27:09.817Z,6.12
2018-09-12T09:30:13.898Z,5.78
2018-09-12T09:33:18.261Z,5.17
2018-09-12T09:36:22.530Z,5.47
2018-09-12T09:39:27.134Z,5.08
2018-09-12T09:42:31.714Z,5.33
2018-09-12T09:45:36.178Z,5.00
2018-09-12T09:48:40.386Z,5.17
2018-09-12T09:51:44.752Z,5.80
2018-09-12T09:54:49.284Z,5.10
2018-09-12T09:57:53.345Z,4.95
2018-09-12T10:01:02.357Z,5.33
2018-09-12T10:04:12.271Z,5.17
2018-09-12T10:07:21.491Z,6.05
2018-09-12T10:10:25.826Z,5.72
2018-09-12T10:13:30.180Z,5.60
2018-09-12T10:16:34.456Z,7.33
2018-09-12T10:19:38.600Z,6.30
2018-09-12T10:22:43.252Z,6.17
2018-09-12T10:25:47.644Z,7.97
2018-09-12T10:28:52.166Z,5.87
2018-09-12T10:31:56.473Z,6.75
2018-09-12T10:35:00.769Z,5.62
2018-09-12T10:38:05.265Z,5.70
2018-09-12T10:41:09.675Z,6.78
2018-09-12T10:44:13.993Z,6.90
2018-09-12T10:47:18.275Z,9.00
2018-09-12T10:50:22.466Z,6.65
2018-09-12T10:53:26.804Z,6.22
2018-09-12T10:56:31.161Z,6.55
2018-09-12T10:59:35.598Z,7.53
2018-09-12T11:02:40.182Z,6.47
2018-09-12T11:05:44.190Z,7.60
2018-09-12T11:08:48.530Z,7.57
2018-09-12T11:11:52.856Z,5.80
2018-09-12T11:14:57.064Z,6.30
2018-09-12T11:18:01.343Z,6.17
2018-09-12T11:21:07.516Z,6.07
2018-09-12T11:24:11.982Z,6.03
2018-09-12T11:27:16.358Z,6.60
2018-09-12T11:30:20.608Z,6.40
2018-09-12T11:33:24.856Z,7.00
2018-09-12T11:36:29.147Z,6.73
2018-09-12T11:39:33.498Z,6.30
2018-09-12T11:42:38.423Z,5.97
2018-09-12T11:45:42.725Z,5.97
2018-09-12T11:48:47.193Z,7.57
2018-09-12T11:51:51.437Z,6.20
2018-09-12T11:54:55.658Z,5.37
2018-09-12T11:58:02.616Z,6.70
2018-09-12T12:01:06.824Z,6.87
2018-09-12T12:04:11.118Z,6.53
2018-09-12T12:07:15.428Z,6.50
2018-09-12T12:10:19.882Z,6.80
2018-09-12T12:13:24.217Z,6.10
2018-09-12T12:16:28.351Z,6.03
2018-09-12T12:19:32.360Z,6.97
2018-09-12T12:22:36.577Z,7.10
2018-09-12T12:25:40.939Z,6.93
2018-09-12T12:28:45.169Z,7.33
2018-09-12T12:31:49.069Z,6.30
2018-09-12T12:34:53.327Z,6.30
2018-09-12T12:37:57.976Z,8.83
2018-09-12T12:41:02.407Z,6.87
2018-09-12T12:44:07.081Z,6.47
2018-09-12T12:47:11.617Z,6.17
2018-09-12T12:50:15.969Z,6.40
2018-09-12T12:53:20.345Z,8.30
2018-09-12T12:56:24.597Z,7.83
2018-09-12T12:59:29.206Z,7.73
2018-09-12T13:02:33.632Z,6.97
2018-09-12T13:05:38.014Z,6.63
2018-09-12T13:08:42.423Z,6.67
2018-09-12T13:11:46.779Z,6.60
2018-09-12T13:14:51.058Z,6.57
2018-09-12T13:17:55.536Z,6.83
2018-09-12T13:20:59.818Z,6.90
2018-09-12T13:24:05.188Z,6.47
2018-09-12T13:27:09.777Z,7.70
2018-09-12T13:30:14.188Z,6.97
2018-09-12T13:33:18.647Z,6.40
2018-09-12T13:36:23.035Z,10.17
2018-09-12T13:39:27.561Z,6.87
2018-09-12T13:42:32.770Z,6.57
2018-09-12T13:45:36.963Z,6.50
2018-09-12T13:48:41.380Z,7.00
2018-09-12T13:51:45.698Z,7.87
2018-09-12T13:54:49.970Z,6.40
2018-09-12T13:57:54.273Z,6.57
2018-09-12T14:00:58.519Z,6.40
2018-09-12T14:04:02.667Z,6.77
2018-09-12T14:07:07.251Z,6.70
2018-09-12T14:10:12.123Z,7.47
2018-09-12T14:13:16.479Z,7.57
2018-09-12T14:16:20.634Z,7.30
2018-09-12T14:19:25.154Z,6.70
2018-09-12T14:22:29.924Z,7.37
2018-09-12T14:25:34.318Z,6.93
2018-09-12T14:28:38.855Z,9.23
2018-09-12T14:31:42.843Z,7.30
2018-09-12T14:34:47.323Z,9.30
2018-09-12T14:37:51.483Z,6.97
2018-09-12T14:40:56.034Z,10.23
2018-09-12T14:44:00.326Z,6.93
2018-09-12T14:47:04.749Z,7.60
2018-09-12T14:50:09.199Z,6.90
2018-09-12T14:53:13.190Z,7.20
2018-09-12T14:56:17.063Z,7.23
2018-09-12T14:59:21.444Z,7.10
2018-09-12T15:02:25.690Z,7.10
2018-09-12T15:05:30.175Z,6.67
2018-09-12T15:08:34.128Z,6.73
2018-09-12T15:11:38.450Z,7.20
2018-09-12T15:14:42.607Z,6.93
2018-09-12T15:17:47.063Z,9.13
2018-09-12T15:20:51.328Z,6.43
2018-09-12T15:23:55.674Z,6.13
2018-09-12T15:27:00.180Z,6.53
2018-09-12T15:30:04.426Z,7.73
2018-09-12T15:33:08.569Z,7.67
2018-09-12T15:36:13.093Z,7.40
2018-09-12T15:39:17.432Z,7.00
2018-09-12T15:42:22.116Z,6.77
2018-09-12T15:45:26.366Z,6.83
2018-09-12T15:48:30.812Z,7.87
2018-09-12T15:51:36.025Z,7.27
2018-09-12T15:54:40.544Z,7.80
2018-09-12T15:57:45.077Z,7.80
2018-09-12T16:00:49.381Z,7.20
2018-09-12T16:03:53.575Z,6.67
2018-09-12T16:06:58.266Z,7.57
2018-09-12T16:10:03.056Z,8.00
2018-09-12T16:13:07.783Z,7.00
2018-09-12T16:16:12.146Z,9.60
2018-09-12T16:19:16.371Z,6.57
2018-09-12T16:22:22.238Z,6.47
2018-09-12T16:25:26.747Z,6.17
2018-09-12T16:28:30.994Z,8.53
2018-09-12T16:31:35.221Z,6.80
2018-09-12T16:34:39.508Z,8.07
2018-09-12T16:37:45.086Z,7.80
2018-09-12T16:40:49.328Z,8.37
2018-09-12T16:43:53.541Z,8.00
2018-09-12T16:46:57.830Z,8.13
2018-09-12T16:50:02.138Z,8.87
2018-09-12T16:53:06.507Z,9.73
2018-09-12T16:56:11.060Z,7.97
2018-09-12T16:59:15.368Z,8.33
2018-09-12T17:02:19.823Z,8.47
2018-09-12T17:05:24.122Z,8.30
2018-09-12T17:08:28.390Z,8.50
2018-09-12T17:11:33.122Z,9.10
2018-09-12T17:14:37.518Z,8.57
2018-09-12T17:17:42.912Z,8.13
2018-09-12T17:20:47.938Z,8.17
2018-09-12T17:23:52.112Z,9.60
2018-09-12T17:26:56.806Z,8.43
2018-09-12T17:30:00.959Z,8.83
2018-09-12T17:33:05.456Z,8.90
2018-09-12T17:36:09.759Z,9.17
2018-09-12T17:39:14.071Z,8.80
2018-09-12T17:42:19.230Z,8.50
2018-09-12T17:45:23.272Z,8.90
2018-09-12T17:48:27.519Z,8.17
2018-09-12T17:51:32.053Z,9.87
2018-09-12T17:54:36.502Z,9.00
2018-09-12T17:57:40.893Z,8.90
2018-09-12T18:00:45.322Z,10.23
2018-09-12T18:03:49.573Z,9.00
2018-09-12T18:06:54.007Z,9.53
2018-09-12T18:09:58.190Z,10.03
2018-09-12T18:13:08.149Z,9.43
2018-09-12T18:16:12.690Z,9.40
2018-09-12T18:19:16.821Z,9.80
2018-09-12T18:22:21.207Z,9.67
2018-09-12T18:25:25.573Z,9.10
2018-09-12T18:28:29.766Z,9.00
2018-09-12T18:31:33.705Z,9.43
2018-09-12T18:34:37.685Z,9.10
2018-09-12T18:37:41.670Z,9.20
2018-09-12T18:40:45.552Z,10.80
2018-09-12T18:43:49.522Z,10.33
2018-09-12T18:46:53.953Z,9.50
2018-09-12T18:49:58.386Z,9.77
2018-09-12T18:53:04.187Z,12.10
2018-09-12T18:56:08.146Z,9.30
2018-09-12T18:59:12.390Z,9.53
2018-09-12T19:02:16.743Z,10.00
2018-09-12T19:05:20.786Z,9.60
2018-09-12T19:08:24.682Z,9.60
2018-09-12T19:11:29.143Z,10.30
2018-09-12T19:14:33.646Z,10.40
2018-09-12T19:17:38.041Z,9.87
2018-09-12T19:20:42.021Z,10.03
2018-09-12T19:23:46.832Z,9.57
2018-09-12T19:26:50.978Z,10.17
2018-09-12T19:29:55.042Z,9.73
2018-09-12T19:32:59.543Z,10.37
2018-09-12T19:36:03.660Z,9.13
2018-09-12T19:39:08.593Z,10.13
2018-09-12T19:42:12.680Z,12.60
2018-09-12T19:45:16.928Z,10.40
2018-09-12T19:48:21.380Z,10.20
2018-09-12T19:51:25.575Z,10.38
2018-09-12T19:54:31.671Z,12.90
2018-09-12T19:57:36.269Z,9.30
2018-09-12T20:00:40.597Z,10.47
2018-09-12T20:03:44.897Z,10.43
2018-09-12T20:06:49.237Z,9.93
2018-09-12T20:09:53.493Z,10.03
2018-09-12T20:12:57.988Z,9.40
2018-09-12T20:16:02.241Z,10.93
2018-09-12T20:19:06.730Z,10.23
2018-09-12T20:22:11.290Z,10.10
2018-09-12T20:25:16.345Z,12.30
2018-09-12T20:28:20.741Z,9.33
2018-09-12T20:31:25.424Z,10.10
2018-09-12T20:34:29.787Z,10.10
2018-09-12T20:37:34.047Z,10.47
2018-09-12T20:40:38.375Z,11.07
2018-09-12T20:43:42.700Z,10.00
2018-09-12T20:46:47.140Z,10.10
2018-09-12T20:49:51.509Z,11.23
2018-09-12T20:52:55.960Z,9.90
2018-09-12T20:56:00.322Z,10.03
2018-09-12T20:59:04.886Z,10.37
2018-09-12T21:02:08.944Z,9.33
2018-09-12T21:05:13.097Z,11.30
2018-09-12T21:08:17.451Z,10.20
2018-09-12T21:11:21.733Z,11.67
2018-09-12T21:14:26.150Z,10.20
2018-09-12T21:17:30.585Z,12.07
2018-09-12T21:20:34.727Z,9.90
2018-09-12T21:23:39.052Z,9.83
2018-09-12T21:26:43.358Z,10.47
2018-09-12T21:29:47.688Z,11.90
2018-09-12T21:32:51.888Z,11.70
2018-09-12T21:35:56.620Z,11.00
2018-09-12T21:39:01.065Z,10.27
2018-09-12T21:42:05.416Z,9.97
2018-09-12T21:45:09.794Z,12.67
2018-09-12T21:48:14.106Z,10.00
2018-09-12T21:51:18.523Z,10.70
2018-09-12T21:54:22.882Z,10.73
2018-09-12T21:57:27.070Z,11.10
2018-09-12T22:00:31.734Z,10.30
2018-09-12T22:03:35.944Z,9.20
2018-09-12T22:06:40.137Z,11.10
2018-09-12T22:09:44.345Z,9.57
2018-09-12T22:12:48.724Z,10.37
2018-09-12T22:15:52.943Z,9.93
2018-09-12T22:18:56.921Z,11.73
2018-09-12T22:22:03.699Z,10.73
2018-09-12T22:25:07.674Z,9.70
2018-09-12T22:28:12.165Z,12.57
2018-09-12T22:31:16.314Z,10.20
2018-09-12T22:34:20.559Z,13.47
2018-09-12T22:37:24.955Z,11.90
2018-09-12T22:40:29.332Z,10.70
2018-09-12T22:43:33.703Z,10.00
2018-09-12T22:46:38.246Z,10.83
2018-09-12T22:49:45.766Z,9.73
2018-09-12T22:52:50.319Z,10.33
2018-09-12T22:55:54.688Z,9.47
2018-09-12T22:58:58.979Z,10.17
2018-09-12T23:02:02.835Z,9.87
2018-09-12T23:05:07.847Z,9.53
2018-09-12T23:08:11.805Z,10.30
2018-09-12T23:11:15.751Z,9.30
2018-09-12T23:14:20.659Z,11.00
2018-09-12T23:17:25.238Z,11.17
2018-09-12T23:20:29.698Z,10.17
2018-09-12T23:23:33.973Z,9.90
2018-09-12T23:26:38.471Z,9.70
2018-09-12T23:29:42.819Z,10.47
2018-09-12T23:32:47.162Z,9.40
2018-09-12T23:35:51.820Z,10.43
2018-09-12T23:38:55.747Z,11.00
2018-09-12T23:42:00.264Z,12.30
2018-09-12T23:45:04.218Z,10.57
2018-09-12T23:48:08.381Z,10.37
2018-09-12T23:51:12.328Z,9.57
2018-09-12T23:54:16.224Z,10.60
2018-09-12T23:57:20.176Z,11.30
